sensor_id;sensor_type;location;lat;lon;timestamp;P1;durP1;ratioP1;P2;durP2;ratioP2
62861;SDS011;48953;53.110;5.592;2024-03-08T00:00:08;53.15;;;30.60;;
62861;SDS011;48953;53.110;5.592;2024-03-08T00:02:36;51.95;;;29.55;;
62861;SDS011;48953;53.110;5.592;2024-03-08T00:05:03;48.78;;;28.73;;
62861;SDS011;48953;53.110;5.592;2024-03-08T00:07:29;51.20;;;29.50;;
62861;SDS011;48953;53.110;5.592;2024-03-08T00:09:55;56.22;;;30.88;;
62861;SDS011;48953;53.110;5.592;2024-03-08T00:12:21;53.60;;;30.10;;
62861;SDS011;48953;53.110;5.592;2024-03-08T00:14:47;52.10;;;29.75;;
62861;SDS011;48953;53.110;5.592;2024-03-08T00:17:13;48.90;;;29.40;;
62861;SDS011;48953;53.110;5.592;2024-03-08T00:19:40;54.67;;;29.90;;
62861;SDS011;48953;53.110;5.592;2024-03-08T00:22:06;53.45;;;30.45;;
62861;SDS011;48953;53.110;5.592;2024-03-08T00:24:33;51.95;;;29.58;;
62861;SDS011;48953;53.110;5.592;2024-03-08T00:26:59;56.83;;;30.88;;
62861;SDS011;48953;53.110;5.592;2024-03-08T00:29:25;52.90;;;30.23;;
62861;SDS011;48953;53.110;5.592;2024-03-08T00:31:51;53.38;;;30.33;;
62861;SDS011;48953;53.110;5.592;2024-03-08T00:34:17;53.15;;;30.17;;
62861;SDS011;48953;53.110;5.592;2024-03-08T00:36:43;55.03;;;30.33;;
62861;SDS011;48953;53.110;5.592;2024-03-08T00:39:09;53.30;;;30.30;;
62861;SDS011;48953;53.110;5.592;2024-03-08T00:41:37;52.05;;;29.23;;
62861;SDS011;48953;53.110;5.592;2024-03-08T00:44:03;59.17;;;31.42;;
62861;SDS011;48953;53.110;5.592;2024-03-08T00:46:29;53.38;;;30.63;;
62861;SDS011;48953;53.110;5.592;2024-03-08T00:48:56;55.80;;;31.52;;
62861;SDS011;48953;53.110;5.592;2024-03-08T00:51:22;61.67;;;31.40;;
62861;SDS011;48953;53.110;5.592;2024-03-08T00:53:48;58.45;;;32.08;;
62861;SDS011;48953;53.110;5.592;2024-03-08T00:56:14;54.45;;;31.55;;
62861;SDS011;48953;53.110;5.592;2024-03-08T00:58:40;56.70;;;31.77;;
62861;SDS011;48953;53.110;5.592;2024-03-08T01:01:06;55.55;;;32.15;;
62861;SDS011;48953;53.110;5.592;2024-03-08T01:03:32;62.42;;;32.78;;
62861;SDS011;48953;53.110;5.592;2024-03-08T01:05:59;59.50;;;34.20;;
62861;SDS011;48953;53.110;5.592;2024-03-08T01:08:29;57.17;;;32.65;;
62861;SDS011;48953;53.110;5.592;2024-03-08T01:10:55;57.72;;;32.15;;
62861;SDS011;48953;53.110;5.592;2024-03-08T01:13:21;61.72;;;32.75;;
62861;SDS011;48953;53.110;5.592;2024-03-08T01:15:47;63.22;;;35.33;;
62861;SDS011;48953;53.110;5.592;2024-03-08T01:18:13;63.30;;;33.00;;
62861;SDS011;48953;53.110;5.592;2024-03-08T01:20:39;61.53;;;34.15;;
62861;SDS011;48953;53.110;5.592;2024-03-08T01:23:06;57.53;;;33.67;;
62861;SDS011;48953;53.110;5.592;2024-03-08T01:25:32;57.72;;;32.42;;
62861;SDS011;48953;53.110;5.592;2024-03-08T01:27:58;58.72;;;33.15;;
62861;SDS011;48953;53.110;5.592;2024-03-08T01:30:24;62.53;;;33.80;;
62861;SDS011;48953;53.110;5.592;2024-03-08T01:32:50;65.32;;;34.17;;
62861;SDS011;48953;53.110;5.592;2024-03-08T01:35:16;62.38;;;34.03;;
62861;SDS011;48953;53.110;5.592;2024-03-08T01:37:43;62.33;;;34.75;;
62861;SDS011;48953;53.110;5.592;2024-03-08T01:40:09;59.22;;;33.40;;
62861;SDS011;48953;53.110;5.592;2024-03-08T01:42:35;62.58;;;34.28;;
62861;SDS011;48953;53.110;5.592;2024-03-08T01:45:04;63.17;;;34.30;;
62861;SDS011;48953;53.110;5.592;2024-03-08T01:47:30;63.65;;;34.22;;
62861;SDS011;48953;53.110;5.592;2024-03-08T01:49:57;64.03;;;34.35;;
62861;SDS011;48953;53.110;5.592;2024-03-08T01:52:24;64.38;;;34.92;;
62861;SDS011;48953;53.110;5.592;2024-03-08T01:54:51;65.85;;;35.33;;
62861;SDS011;48953;53.110;5.592;2024-03-08T01:57:17;64.47;;;35.92;;
62861;SDS011;48953;53.110;5.592;2024-03-08T01:59:43;62.47;;;35.20;;
62861;SDS011;48953;53.110;5.592;2024-03-08T02:02:09;65.85;;;33.78;;
62861;SDS011;48953;53.110;5.592;2024-03-08T02:04:38;62.45;;;34.05;;
62861;SDS011;48953;53.110;5.592;2024-03-08T02:07:04;69.75;;;36.65;;
62861;SDS011;48953;53.110;5.592;2024-03-08T02:09:31;61.35;;;34.50;;
62861;SDS011;48953;53.110;5.592;2024-03-08T02:11:57;67.07;;;36.15;;
62861;SDS011;48953;53.110;5.592;2024-03-08T02:14:23;66.95;;;36.33;;
62861;SDS011;48953;53.110;5.592;2024-03-08T02:16:49;65.60;;;36.28;;
62861;SDS011;48953;53.110;5.592;2024-03-08T02:19:16;71.18;;;36.60;;
62861;SDS011;48953;53.110;5.592;2024-03-08T02:21:42;67.93;;;37.65;;
62861;SDS011;48953;53.110;5.592;2024-03-08T02:24:11;70.32;;;36.47;;
62861;SDS011;48953;53.110;5.592;2024-03-08T02:26:38;71.50;;;38.28;;
62861;SDS011;48953;53.110;5.592;2024-03-08T02:29:04;70.47;;;37.65;;
62861;SDS011;48953;53.110;5.592;2024-03-08T02:31:30;71.05;;;37.88;;
62861;SDS011;48953;53.110;5.592;2024-03-08T02:33:56;72.80;;;37.50;;
62861;SDS011;48953;53.110;5.592;2024-03-08T02:36:22;69.47;;;37.08;;
62861;SDS011;48953;53.110;5.592;2024-03-08T02:38:48;73.43;;;37.90;;
62861;SDS011;48953;53.110;5.592;2024-03-08T02:41:14;68.35;;;37.15;;
62861;SDS011;48953;53.110;5.592;2024-03-08T02:43:40;70.28;;;38.58;;
62861;SDS011;48953;53.110;5.592;2024-03-08T02:46:06;72.32;;;38.53;;
62861;SDS011;48953;53.110;5.592;2024-03-08T02:48:33;72.53;;;38.42;;
62861;SDS011;48953;53.110;5.592;2024-03-08T02:51:00;70.93;;;37.45;;
62861;SDS011;48953;53.110;5.592;2024-03-08T02:53:27;72.05;;;37.83;;
62861;SDS011;48953;53.110;5.592;2024-03-08T02:55:53;74.90;;;39.65;;
62861;SDS011;48953;53.110;5.592;2024-03-08T02:58:20;75.32;;;38.08;;
62861;SDS011;48953;53.110;5.592;2024-03-08T03:00:46;75.30;;;38.92;;
62861;SDS011;48953;53.110;5.592;2024-03-08T03:03:12;71.78;;;40.72;;
62861;SDS011;48953;53.110;5.592;2024-03-08T03:05:38;83.05;;;38.65;;
62861;SDS011;48953;53.110;5.592;2024-03-08T03:08:06;75.55;;;38.90;;
62861;SDS011;48953;53.110;5.592;2024-03-08T03:10:34;74.57;;;39.95;;
62861;SDS011;48953;53.110;5.592;2024-03-08T03:13:01;71.38;;;39.22;;
62861;SDS011;48953;53.110;5.592;2024-03-08T03:15:27;73.05;;;38.60;;
62861;SDS011;48953;53.110;5.592;2024-03-08T03:17:53;76.07;;;39.65;;
62861;SDS011;48953;53.110;5.592;2024-03-08T03:20:20;76.93;;;41.65;;
62861;SDS011;48953;53.110;5.592;2024-03-08T03:22:51;78.88;;;39.75;;
62861;SDS011;48953;53.110;5.592;2024-03-08T03:25:18;71.30;;;39.15;;
62861;SDS011;48953;53.110;5.592;2024-03-08T03:27:53;71.05;;;39.10;;
62861;SDS011;48953;53.110;5.592;2024-03-08T03:30:22;76.50;;;41.45;;
62861;SDS011;48953;53.110;5.592;2024-03-08T03:32:48;73.18;;;38.33;;
62861;SDS011;48953;53.110;5.592;2024-03-08T03:35:19;75.22;;;38.90;;
62861;SDS011;48953;53.110;5.592;2024-03-08T03:37:45;72.70;;;37.53;;
62861;SDS011;48953;53.110;5.592;2024-03-08T03:40:26;69.90;;;39.38;;
62861;SDS011;48953;53.110;5.592;2024-03-08T03:42:52;75.82;;;39.88;;
62861;SDS011;48953;53.110;5.592;2024-03-08T03:45:18;67.30;;;38.03;;
62861;SDS011;48953;53.110;5.592;2024-03-08T03:47:45;72.07;;;39.60;;
62861;SDS011;48953;53.110;5.592;2024-03-08T03:50:11;71.47;;;38.33;;
62861;SDS011;48953;53.110;5.592;2024-03-08T03:52:37;65.35;;;37.45;;
62861;SDS011;48953;53.110;5.592;2024-03-08T03:55:03;69.28;;;37.90;;
62861;SDS011;48953;53.110;5.592;2024-03-08T03:57:30;68.00;;;38.03;;
62861;SDS011;48953;53.110;5.592;2024-03-08T03:59:56;67.13;;;36.65;;
62861;SDS011;48953;53.110;5.592;2024-03-08T04:02:27;72.47;;;38.75;;
62861;SDS011;48953;53.110;5.592;2024-03-08T04:04:53;64.30;;;37.70;;
62861;SDS011;48953;53.110;5.592;2024-03-08T04:07:19;64.50;;;36.08;;
62861;SDS011;48953;53.110;5.592;2024-03-08T04:09:45;61.17;;;36.58;;
62861;SDS011;48953;53.110;5.592;2024-03-08T04:12:12;61.15;;;35.20;;
62861;SDS011;48953;53.110;5.592;2024-03-08T04:14:41;63.78;;;37.63;;
62861;SDS011;48953;53.110;5.592;2024-03-08T04:17:07;61.65;;;36.72;;
62861;SDS011;48953;53.110;5.592;2024-03-08T04:19:36;65.40;;;37.78;;
62861;SDS011;48953;53.110;5.592;2024-03-08T04:22:03;64.45;;;37.25;;
62861;SDS011;48953;53.110;5.592;2024-03-08T04:24:29;65.95;;;37.13;;
62861;SDS011;48953;53.110;5.592;2024-03-08T04:26:55;62.55;;;36.05;;
62861;SDS011;48953;53.110;5.592;2024-03-08T04:29:22;62.78;;;36.17;;
62861;SDS011;48953;53.110;5.592;2024-03-08T04:31:48;59.22;;;35.65;;
62861;SDS011;48953;53.110;5.592;2024-03-08T04:34:14;57.65;;;34.83;;
62861;SDS011;48953;53.110;5.592;2024-03-08T04:36:40;59.53;;;36.28;;
62861;SDS011;48953;53.110;5.592;2024-03-08T04:39:06;62.58;;;35.53;;
62861;SDS011;48953;53.110;5.592;2024-03-08T04:41:37;59.55;;;36.17;;
62861;SDS011;48953;53.110;5.592;2024-03-08T04:44:03;58.97;;;34.78;;
62861;SDS011;48953;53.110;5.592;2024-03-08T04:46:29;58.55;;;35.20;;
62861;SDS011;48953;53.110;5.592;2024-03-08T04:48:55;61.08;;;36.05;;
62861;SDS011;48953;53.110;5.592;2024-03-08T04:51:21;59.45;;;34.92;;
62861;SDS011;48953;53.110;5.592;2024-03-08T04:53:48;57.20;;;34.90;;
62861;SDS011;48953;53.110;5.592;2024-03-08T04:56:14;63.63;;;35.78;;
62861;SDS011;48953;53.110;5.592;2024-03-08T04:58:41;58.30;;;35.08;;
62861;SDS011;48953;53.110;5.592;2024-03-08T05:01:07;58.38;;;35.72;;
62861;SDS011;48953;53.110;5.592;2024-03-08T05:03:35;59.22;;;35.22;;
62861;SDS011;48953;53.110;5.592;2024-03-08T05:06:01;59.55;;;36.78;;
62861;SDS011;48953;53.110;5.592;2024-03-08T05:08:27;57.67;;;37.03;;
62861;SDS011;48953;53.110;5.592;2024-03-08T05:10:53;57.22;;;35.63;;
62861;SDS011;48953;53.110;5.592;2024-03-08T05:13:19;59.38;;;35.55;;
62861;SDS011;48953;53.110;5.592;2024-03-08T05:15:49;57.78;;;35.67;;
62861;SDS011;48953;53.110;5.592;2024-03-08T05:18:16;59.58;;;35.97;;
62861;SDS011;48953;53.110;5.592;2024-03-08T05:20:42;58.60;;;35.30;;
62861;SDS011;48953;53.110;5.592;2024-03-08T05:23:08;55.38;;;35.55;;
62861;SDS011;48953;53.110;5.592;2024-03-08T05:25:34;57.67;;;36.35;;
62861;SDS011;48953;53.110;5.592;2024-03-08T05:28:01;58.20;;;36.58;;
62861;SDS011;48953;53.110;5.592;2024-03-08T05:30:29;59.08;;;35.08;;
62861;SDS011;48953;53.110;5.592;2024-03-08T05:32:55;61.88;;;36.08;;
62861;SDS011;48953;53.110;5.592;2024-03-08T05:35:21;58.92;;;35.53;;
62861;SDS011;48953;53.110;5.592;2024-03-08T05:37:48;57.92;;;34.90;;
62861;SDS011;48953;53.110;5.592;2024-03-08T05:40:14;58.95;;;35.80;;
62861;SDS011;48953;53.110;5.592;2024-03-08T05:42:40;60.97;;;36.83;;
62861;SDS011;48953;53.110;5.592;2024-03-08T05:45:06;59.58;;;34.53;;
62861;SDS011;48953;53.110;5.592;2024-03-08T05:47:32;58.22;;;34.17;;
62861;SDS011;48953;53.110;5.592;2024-03-08T05:49:58;57.67;;;35.20;;
62861;SDS011;48953;53.110;5.592;2024-03-08T05:52:25;55.20;;;32.78;;
62861;SDS011;48953;53.110;5.592;2024-03-08T05:54:51;57.83;;;35.67;;
62861;SDS011;48953;53.110;5.592;2024-03-08T05:57:17;57.05;;;35.47;;
62861;SDS011;48953;53.110;5.592;2024-03-08T05:59:43;58.72;;;35.70;;
62861;SDS011;48953;53.110;5.592;2024-03-08T06:02:09;60.88;;;37.10;;
62861;SDS011;48953;53.110;5.592;2024-03-08T06:04:35;60.55;;;36.03;;
62861;SDS011;48953;53.110;5.592;2024-03-08T06:07:01;58.17;;;36.10;;
62861;SDS011;48953;53.110;5.592;2024-03-08T06:09:28;59.85;;;36.55;;
62861;SDS011;48953;53.110;5.592;2024-03-08T06:11:54;60.65;;;36.58;;
62861;SDS011;48953;53.110;5.592;2024-03-08T06:14:22;63.75;;;36.13;;
62861;SDS011;48953;53.110;5.592;2024-03-08T06:16:48;64.03;;;38.13;;
62861;SDS011;48953;53.110;5.592;2024-03-08T06:19:17;65.20;;;37.28;;
62861;SDS011;48953;53.110;5.592;2024-03-08T06:21:43;63.15;;;37.70;;
62861;SDS011;48953;53.110;5.592;2024-03-08T06:24:09;63.50;;;37.53;;
62861;SDS011;48953;53.110;5.592;2024-03-08T06:26:35;64.72;;;36.72;;
62861;SDS011;48953;53.110;5.592;2024-03-08T06:29:02;62.42;;;37.40;;
62861;SDS011;48953;53.110;5.592;2024-03-08T06:31:31;62.05;;;36.47;;
62861;SDS011;48953;53.110;5.592;2024-03-08T06:33:57;63.35;;;36.75;;
62861;SDS011;48953;53.110;5.592;2024-03-08T06:36:23;61.92;;;36.13;;
62861;SDS011;48953;53.110;5.592;2024-03-08T06:38:50;58.67;;;36.25;;
62861;SDS011;48953;53.110;5.592;2024-03-08T06:41:16;60.67;;;35.88;;
62861;SDS011;48953;53.110;5.592;2024-03-08T06:43:42;63.45;;;35.47;;
62861;SDS011;48953;53.110;5.592;2024-03-08T06:46:09;58.38;;;35.15;;
62861;SDS011;48953;53.110;5.592;2024-03-08T06:48:37;60.60;;;36.33;;
62861;SDS011;48953;53.110;5.592;2024-03-08T06:51:03;60.85;;;35.22;;
62861;SDS011;48953;53.110;5.592;2024-03-08T06:53:30;55.08;;;35.75;;
62861;SDS011;48953;53.110;5.592;2024-03-08T06:55:56;57.13;;;34.78;;
62861;SDS011;48953;53.110;5.592;2024-03-08T06:58:22;57.92;;;33.92;;
62861;SDS011;48953;53.110;5.592;2024-03-08T07:00:48;57.47;;;34.80;;
62861;SDS011;48953;53.110;5.592;2024-03-08T07:03:17;51.15;;;32.55;;
62861;SDS011;48953;53.110;5.592;2024-03-08T07:05:43;54.40;;;32.63;;
62861;SDS011;48953;53.110;5.592;2024-03-08T07:08:09;53.88;;;33.88;;
62861;SDS011;48953;53.110;5.592;2024-03-08T07:10:39;56.00;;;33.10;;
62861;SDS011;48953;53.110;5.592;2024-03-08T07:13:06;52.72;;;32.65;;
62861;SDS011;48953;53.110;5.592;2024-03-08T07:15:32;53.95;;;33.90;;
62861;SDS011;48953;53.110;5.592;2024-03-08T07:17:58;53.05;;;34.00;;
62861;SDS011;48953;53.110;5.592;2024-03-08T07:20:27;50.72;;;32.65;;
62861;SDS011;48953;53.110;5.592;2024-03-08T07:22:53;45.95;;;30.05;;
62861;SDS011;48953;53.110;5.592;2024-03-08T07:25:19;44.78;;;30.23;;
62861;SDS011;48953;53.110;5.592;2024-03-08T07:27:52;44.38;;;28.92;;
62861;SDS011;48953;53.110;5.592;2024-03-08T07:30:18;42.47;;;29.88;;
62861;SDS011;48953;53.110;5.592;2024-03-08T07:33:03;42.30;;;27.67;;
62861;SDS011;48953;53.110;5.592;2024-03-08T07:35:29;46.72;;;28.63;;
62861;SDS011;48953;53.110;5.592;2024-03-08T07:37:56;40.53;;;26.48;;
62861;SDS011;48953;53.110;5.592;2024-03-08T07:40:22;39.67;;;26.17;;
62861;SDS011;48953;53.110;5.592;2024-03-08T07:42:51;38.72;;;26.52;;
62861;SDS011;48953;53.110;5.592;2024-03-08T07:45:17;40.38;;;25.92;;
62861;SDS011;48953;53.110;5.592;2024-03-08T07:47:43;37.15;;;24.60;;
62861;SDS011;48953;53.110;5.592;2024-03-08T07:50:10;37.00;;;25.23;;
62861;SDS011;48953;53.110;5.592;2024-03-08T07:52:40;38.30;;;25.02;;
62861;SDS011;48953;53.110;5.592;2024-03-08T07:55:07;36.10;;;25.17;;
62861;SDS011;48953;53.110;5.592;2024-03-08T07:57:33;36.75;;;25.05;;
62861;SDS011;48953;53.110;5.592;2024-03-08T07:59:59;33.80;;;23.58;;
62861;SDS011;48953;53.110;5.592;2024-03-08T08:02:25;35.75;;;23.05;;
62861;SDS011;48953;53.110;5.592;2024-03-08T08:04:52;33.15;;;22.85;;
62861;SDS011;48953;53.110;5.592;2024-03-08T08:07:19;34.13;;;23.67;;
62861;SDS011;48953;53.110;5.592;2024-03-08T08:09:45;35.20;;;24.27;;
62861;SDS011;48953;53.110;5.592;2024-03-08T08:12:11;34.58;;;23.08;;
62861;SDS011;48953;53.110;5.592;2024-03-08T08:14:40;34.10;;;24.52;;
62861;SDS011;48953;53.110;5.592;2024-03-08T08:17:06;32.22;;;21.65;;
62861;SDS011;48953;53.110;5.592;2024-03-08T08:19:33;37.63;;;23.88;;
62861;SDS011;48953;53.110;5.592;2024-03-08T08:22:00;31.20;;;21.40;;
62861;SDS011;48953;53.110;5.592;2024-03-08T08:24:27;31.83;;;22.00;;
62861;SDS011;48953;53.110;5.592;2024-03-08T08:26:53;31.70;;;21.52;;
62861;SDS011;48953;53.110;5.592;2024-03-08T08:29:19;32.53;;;20.95;;
62861;SDS011;48953;53.110;5.592;2024-03-08T08:31:45;33.03;;;21.88;;
62861;SDS011;48953;53.110;5.592;2024-03-08T08:34:12;30.55;;;20.33;;
62861;SDS011;48953;53.110;5.592;2024-03-08T08:36:38;29.90;;;21.05;;
62861;SDS011;48953;53.110;5.592;2024-03-08T08:39:05;34.35;;;21.17;;
62861;SDS011;48953;53.110;5.592;2024-03-08T08:41:37;35.85;;;22.27;;
62861;SDS011;48953;53.110;5.592;2024-03-08T08:44:03;33.00;;;23.13;;
62861;SDS011;48953;53.110;5.592;2024-03-08T08:46:29;31.20;;;19.77;;
62861;SDS011;48953;53.110;5.592;2024-03-08T08:48:55;29.33;;;19.60;;
62861;SDS011;48953;53.110;5.592;2024-03-08T08:51:21;29.15;;;19.67;;
62861;SDS011;48953;53.110;5.592;2024-03-08T08:53:48;29.63;;;19.98;;
62861;SDS011;48953;53.110;5.592;2024-03-08T08:56:14;31.00;;;20.48;;
62861;SDS011;48953;53.110;5.592;2024-03-08T08:58:44;29.10;;;18.83;;
62861;SDS011;48953;53.110;5.592;2024-03-08T09:01:10;31.15;;;19.55;;
62861;SDS011;48953;53.110;5.592;2024-03-08T09:03:37;31.52;;;19.02;;
62861;SDS011;48953;53.110;5.592;2024-03-08T09:06:05;27.85;;;18.55;;
62861;SDS011;48953;53.110;5.592;2024-03-08T09:08:34;31.52;;;21.25;;
62861;SDS011;48953;53.110;5.592;2024-03-08T09:11:00;31.10;;;19.83;;
62861;SDS011;48953;53.110;5.592;2024-03-08T09:13:26;27.92;;;18.52;;
62861;SDS011;48953;53.110;5.592;2024-03-08T09:15:53;28.08;;;19.10;;
62861;SDS011;48953;53.110;5.592;2024-03-08T09:18:19;28.77;;;19.45;;
62861;SDS011;48953;53.110;5.592;2024-03-08T09:20:45;31.42;;;20.73;;
62861;SDS011;48953;53.110;5.592;2024-03-08T09:23:12;26.33;;;16.67;;
62861;SDS011;48953;53.110;5.592;2024-03-08T09:25:38;30.35;;;18.90;;
62861;SDS011;48953;53.110;5.592;2024-03-08T09:28:04;28.90;;;18.98;;
62861;SDS011;48953;53.110;5.592;2024-03-08T09:30:30;26.63;;;17.20;;
62861;SDS011;48953;53.110;5.592;2024-03-08T09:32:56;28.27;;;18.48;;
62861;SDS011;48953;53.110;5.592;2024-03-08T09:35:22;30.35;;;19.10;;
62861;SDS011;48953;53.110;5.592;2024-03-08T09:37:49;25.05;;;17.88;;
62861;SDS011;48953;53.110;5.592;2024-03-08T09:40:16;25.02;;;16.83;;
62861;SDS011;48953;53.110;5.592;2024-03-08T09:42:45;29.48;;;19.20;;
62861;SDS011;48953;53.110;5.592;2024-03-08T09:45:11;28.20;;;18.85;;
62861;SDS011;48953;53.110;5.592;2024-03-08T09:47:43;27.13;;;19.23;;
62861;SDS011;48953;53.110;5.592;2024-03-08T09:50:10;28.55;;;18.77;;
62861;SDS011;48953;53.110;5.592;2024-03-08T09:52:39;29.75;;;20.50;;
62861;SDS011;48953;53.110;5.592;2024-03-08T09:55:06;30.45;;;19.33;;
62861;SDS011;48953;53.110;5.592;2024-03-08T09:57:41;27.25;;;18.00;;
62861;SDS011;48953;53.110;5.592;2024-03-08T10:00:28;29.60;;;19.50;;
62861;SDS011;48953;53.110;5.592;2024-03-08T10:02:54;29.38;;;21.15;;
62861;SDS011;48953;53.110;5.592;2024-03-08T10:05:20;30.98;;;20.90;;
62861;SDS011;48953;53.110;5.592;2024-03-08T10:07:47;32.25;;;19.63;;
62861;SDS011;48953;53.110;5.592;2024-03-08T10:10:13;31.52;;;21.65;;
62861;SDS011;48953;53.110;5.592;2024-03-08T10:12:39;32.20;;;20.73;;
62861;SDS011;48953;53.110;5.592;2024-03-08T10:15:06;31.35;;;20.02;;
62861;SDS011;48953;53.110;5.592;2024-03-08T10:17:33;32.78;;;22.10;;
62861;SDS011;48953;53.110;5.592;2024-03-08T10:19:59;32.33;;;21.45;;
62861;SDS011;48953;53.110;5.592;2024-03-08T10:22:25;33.22;;;22.17;;
62861;SDS011;48953;53.110;5.592;2024-03-08T10:24:52;33.03;;;22.60;;
62861;SDS011;48953;53.110;5.592;2024-03-08T10:27:18;33.05;;;21.50;;
62861;SDS011;48953;53.110;5.592;2024-03-08T10:29:47;35.17;;;22.55;;
62861;SDS011;48953;53.110;5.592;2024-03-08T10:32:15;32.83;;;21.30;;
62861;SDS011;48953;53.110;5.592;2024-03-08T10:34:41;31.52;;;20.70;;
62861;SDS011;48953;53.110;5.592;2024-03-08T10:37:07;35.47;;;23.45;;
62861;SDS011;48953;53.110;5.592;2024-03-08T10:39:37;39.58;;;23.25;;
62861;SDS011;48953;53.110;5.592;2024-03-08T10:42:05;33.92;;;22.45;;
62861;SDS011;48953;53.110;5.592;2024-03-08T10:47:06;32.20;;;23.15;;
62861;SDS011;48953;53.110;5.592;2024-03-08T10:49:38;35.67;;;23.15;;
62861;SDS011;48953;53.110;5.592;2024-03-08T10:52:04;32.67;;;22.25;;
62861;SDS011;48953;53.110;5.592;2024-03-08T10:54:33;32.78;;;21.70;;
62861;SDS011;48953;53.110;5.592;2024-03-08T10:57:00;32.70;;;21.08;;
62861;SDS011;48953;53.110;5.592;2024-03-08T10:59:29;35.20;;;23.08;;
62861;SDS011;48953;53.110;5.592;2024-03-08T11:01:55;33.97;;;22.65;;
62861;SDS011;48953;53.110;5.592;2024-03-08T11:04:21;33.78;;;22.92;;
62861;SDS011;48953;53.110;5.592;2024-03-08T11:06:48;36.85;;;23.85;;
62861;SDS011;48953;53.110;5.592;2024-03-08T11:09:30;34.90;;;23.95;;
62861;SDS011;48953;53.110;5.592;2024-03-08T11:14:45;33.78;;;21.92;;
62861;SDS011;48953;53.110;5.592;2024-03-08T11:17:14;36.38;;;23.83;;
62861;SDS011;48953;53.110;5.592;2024-03-08T11:19:45;32.75;;;22.15;;
62861;SDS011;48953;53.110;5.592;2024-03-08T11:22:20;35.65;;;22.08;;
62861;SDS011;48953;53.110;5.592;2024-03-08T11:24:48;36.08;;;22.02;;
62861;SDS011;48953;53.110;5.592;2024-03-08T11:27:14;36.45;;;22.48;;
62861;SDS011;48953;53.110;5.592;2024-03-08T11:29:40;29.20;;;17.75;;
62861;SDS011;48953;53.110;5.592;2024-03-08T11:32:07;34.30;;;23.25;;
62861;SDS011;48953;53.110;5.592;2024-03-08T11:34:37;32.38;;;22.50;;
62861;SDS011;48953;53.110;5.592;2024-03-08T11:37:03;35.65;;;22.85;;
62861;SDS011;48953;53.110;5.592;2024-03-08T11:39:30;33.65;;;22.02;;
62861;SDS011;48953;53.110;5.592;2024-03-08T11:41:56;33.75;;;24.15;;
62861;SDS011;48953;53.110;5.592;2024-03-08T11:44:26;34.38;;;23.83;;
62861;SDS011;48953;53.110;5.592;2024-03-08T11:46:52;36.28;;;23.17;;
62861;SDS011;48953;53.110;5.592;2024-03-08T11:49:19;34.88;;;23.30;;
62861;SDS011;48953;53.110;5.592;2024-03-08T11:51:45;32.47;;;22.17;;
62861;SDS011;48953;53.110;5.592;2024-03-08T11:54:12;32.78;;;20.48;;
62861;SDS011;48953;53.110;5.592;2024-03-08T11:56:38;32.10;;;21.85;;
62861;SDS011;48953;53.110;5.592;2024-03-08T11:59:06;35.35;;;22.40;;
62861;SDS011;48953;53.110;5.592;2024-03-08T12:01:37;32.83;;;22.55;;
62861;SDS011;48953;53.110;5.592;2024-03-08T12:04:04;35.70;;;22.20;;
62861;SDS011;48953;53.110;5.592;2024-03-08T12:06:37;37.92;;;22.70;;
62861;SDS011;48953;53.110;5.592;2024-03-08T12:09:07;35.28;;;22.90;;
62861;SDS011;48953;53.110;5.592;2024-03-08T12:11:34;33.10;;;21.85;;
62861;SDS011;48953;53.110;5.592;2024-03-08T12:14:01;30.67;;;19.55;;
62861;SDS011;48953;53.110;5.592;2024-03-08T12:16:27;32.83;;;21.33;;
62861;SDS011;48953;53.110;5.592;2024-03-08T12:18:53;33.70;;;23.33;;
62861;SDS011;48953;53.110;5.592;2024-03-08T12:21:19;32.22;;;20.45;;
62861;SDS011;48953;53.110;5.592;2024-03-08T12:23:47;30.60;;;20.13;;
62861;SDS011;48953;53.110;5.592;2024-03-08T12:26:17;30.85;;;19.77;;
62861;SDS011;48953;53.110;5.592;2024-03-08T12:28:44;32.10;;;20.20;;
62861;SDS011;48953;53.110;5.592;2024-03-08T12:31:13;30.60;;;20.30;;
62861;SDS011;48953;53.110;5.592;2024-03-08T12:33:51;31.85;;;18.77;;
62861;SDS011;48953;53.110;5.592;2024-03-08T12:36:18;34.33;;;19.98;;
62861;SDS011;48953;53.110;5.592;2024-03-08T12:38:47;28.67;;;19.27;;
62861;SDS011;48953;53.110;5.592;2024-03-08T12:41:14;31.75;;;21.45;;
62861;SDS011;48953;53.110;5.592;2024-03-08T12:43:40;33.67;;;21.42;;
62861;SDS011;48953;53.110;5.592;2024-03-08T12:46:06;32.33;;;20.23;;
62861;SDS011;48953;53.110;5.592;2024-03-08T12:48:37;32.10;;;20.45;;
62861;SDS011;48953;53.110;5.592;2024-03-08T12:51:05;32.72;;;21.55;;
62861;SDS011;48953;53.110;5.592;2024-03-08T12:53:32;31.73;;;21.02;;
62861;SDS011;48953;53.110;5.592;2024-03-08T12:55:58;32.00;;;21.30;;
62861;SDS011;48953;53.110;5.592;2024-03-08T12:58:24;31.42;;;20.83;;
62861;SDS011;48953;53.110;5.592;2024-03-08T13:00:51;32.13;;;20.27;;
62861;SDS011;48953;53.110;5.592;2024-03-08T13:03:17;29.63;;;19.48;;
62861;SDS011;48953;53.110;5.592;2024-03-08T13:05:43;32.38;;;21.15;;
62861;SDS011;48953;53.110;5.592;2024-03-08T13:08:10;30.48;;;19.00;;
62861;SDS011;48953;53.110;5.592;2024-03-08T13:10:40;29.48;;;19.23;;
62861;SDS011;48953;53.110;5.592;2024-03-08T13:13:08;32.53;;;20.80;;
62861;SDS011;48953;53.110;5.592;2024-03-08T13:15:35;28.98;;;18.05;;
62861;SDS011;48953;53.110;5.592;2024-03-08T13:18:01;30.50;;;19.13;;
62861;SDS011;48953;53.110;5.592;2024-03-08T13:20:28;32.35;;;21.35;;
62861;SDS011;48953;53.110;5.592;2024-03-08T13:22:54;30.95;;;21.23;;
62861;SDS011;48953;53.110;5.592;2024-03-08T13:25:21;30.02;;;20.20;;
62861;SDS011;48953;53.110;5.592;2024-03-08T13:27:48;29.83;;;20.60;;
62861;SDS011;48953;53.110;5.592;2024-03-08T13:30:14;35.63;;;20.13;;
62861;SDS011;48953;53.110;5.592;2024-03-08T13:32:43;29.15;;;18.85;;
62861;SDS011;48953;53.110;5.592;2024-03-08T13:35:12;27.83;;;17.83;;
62861;SDS011;48953;53.110;5.592;2024-03-08T13:37:42;31.95;;;19.45;;
62861;SDS011;48953;53.110;5.592;2024-03-08T13:40:08;31.20;;;17.50;;
62861;SDS011;48953;53.110;5.592;2024-03-08T13:42:43;28.95;;;18.05;;
62861;SDS011;48953;53.110;5.592;2024-03-08T13:45:09;30.15;;;18.73;;
62861;SDS011;48953;53.110;5.592;2024-03-08T13:47:36;32.78;;;20.80;;
62861;SDS011;48953;53.110;5.592;2024-03-08T13:50:02;26.52;;;16.33;;
62861;SDS011;48953;53.110;5.592;2024-03-08T13:52:32;30.53;;;19.03;;
62861;SDS011;48953;53.110;5.592;2024-03-08T13:54:59;27.67;;;19.05;;
62861;SDS011;48953;53.110;5.592;2024-03-08T13:57:25;26.13;;;19.58;;
62861;SDS011;48953;53.110;5.592;2024-03-08T13:59:52;31.67;;;19.63;;
62861;SDS011;48953;53.110;5.592;2024-03-08T14:02:18;29.38;;;19.42;;
62861;SDS011;48953;53.110;5.592;2024-03-08T14:04:47;29.50;;;18.95;;
62861;SDS011;48953;53.110;5.592;2024-03-08T14:07:14;28.08;;;19.10;;
62861;SDS011;48953;53.110;5.592;2024-03-08T14:09:41;29.15;;;19.20;;
62861;SDS011;48953;53.110;5.592;2024-03-08T14:12:08;26.98;;;17.92;;
62861;SDS011;48953;53.110;5.592;2024-03-08T14:14:34;29.15;;;18.98;;
62861;SDS011;48953;53.110;5.592;2024-03-08T14:17:03;25.77;;;18.20;;
62861;SDS011;48953;53.110;5.592;2024-03-08T14:19:31;26.98;;;17.80;;
62861;SDS011;48953;53.110;5.592;2024-03-08T14:21:57;28.45;;;18.35;;
62861;SDS011;48953;53.110;5.592;2024-03-08T14:24:24;32.20;;;19.42;;